WetterOnline ( https://www.wetteronline.de )

Wetter aktuell Fichtelberg

Aktuelles Wetter: Fichtelberg (1215m)

6-stündlich | Neueste Meldungen
Ortszeit Temperatur Wetter
Sa, 15.06. 14:00 10.5° C bedeckt
Sa, 15.06. 8:00 10.8° C bewölkt
Sa, 15.06. 2:00 8.7° C bewölkt
Fr, 14.06. 20:00 8.7° C bedeckt
Fr, 14.06. 14:00 7.9° C leichter Regen
Fr, 14.06. 8:00 7.9° C bedeckt
Fr, 14.06. 2:00 5.5° C leicht bewölkt
Do, 13.06. 20:00 9.6° C leicht bewölkt
Ortszeit Temperatur Wetter
Sa, 15.06. 16:00 11.7° C bewölkt
Sa, 15.06. 15:50 11.7° C bewölkt
Sa, 15.06. 15:40 12.1° C bedeckt
Sa, 15.06. 15:30 12.2° C bewölkt
Sa, 15.06. 15:20 12.2° C bewölkt
Sa, 15.06. 15:10 10.8° C bedeckt
Sa, 15.06. 15:00 10.5° C bewölkt
Sa, 15.06. 14:30 11.1° C bewölkt
Sa, 15.06. 14:00 10.5° C bedeckt
Sa, 15.06. 13:30 9.6° C bedeckt
Sa, 15.06. 13:00 10.0° C bewölkt
Ortszeit Relative Feuchte Sichtweite
Sa, 15.06. 14:00 94% >70 km
Sa, 15.06. 8:00 84% 65 km
Sa, 15.06. 2:00 93% 35 km
Fr, 14.06. 20:00 97% 10 km
Fr, 14.06. 14:00 96% 13 km
Fr, 14.06. 8:00 75% 65 km
Fr, 14.06. 2:00 82% 55 km
Do, 13.06. 20:00 65% 65 km
Ortszeit Relative Feuchte Sichtweite
Sa, 15.06. 16:00 80% -
Sa, 15.06. 15:50 80% -
Sa, 15.06. 15:40 80% -
Sa, 15.06. 15:30 84% 55 km
Sa, 15.06. 15:20 84% -
Sa, 15.06. 15:10 89% -
Sa, 15.06. 15:00 89% >70 km
Sa, 15.06. 14:30 92% -
Sa, 15.06. 14:00 94% >70 km
Sa, 15.06. 13:30 95% 65 km
Sa, 15.06. 13:00 92% 65 km
Ortszeit Niederschlagsmenge Niederschlagsart
Sa, 15.06. 14:00 5 l/m2 in 6 Std. Regen
Sa, 15.06. 8:00 0.1 l/m2 in 12 Std. -
Sa, 15.06. 2:00 0.1 l/m2 in 6 Std. Regen
Fr, 14.06. 20:00 2 l/m2 in 12 Std. Regen
Fr, 14.06. 14:00 2 l/m2 in 6 Std. Regen
Fr, 14.06. 8:00 0.0 l/m2 in 12 Std. -
Fr, 14.06. 2:00 0.0 l/m2 in 6 Std. -
Do, 13.06. 20:00 6 l/m2 in 12 Std. Regen
Ortszeit Niederschlagsmenge Niederschlagsart
Sa, 15.06. 16:00 0.0 l/m2 in 1 Std. -
Sa, 15.06. 15:50 keine Meldung -
Sa, 15.06. 15:40 keine Meldung -
Sa, 15.06. 15:30 0.0 l/m2 in 30 Min -
Sa, 15.06. 15:20 keine Meldung -
Sa, 15.06. 15:10 keine Meldung -
Sa, 15.06. 15:00 0.0 l/m2 in 1 Std. -
Sa, 15.06. 14:30 0.0 l/m2 in 30 Min -
Sa, 15.06. 14:00 0.0 l/m2 in 1 Std. Regen
Sa, 15.06. 13:30 0.0 l/m2 in 30 Min -
Sa, 15.06. 13:00 <0.05 l/m2 in 1 Std. Regen
Ortszeit Stärke Spitze Richtung
km/h Bft. km/h Grad Sektor
Sa, 15.06. 14:00 32 5 83 250° W
Sa, 15.06. 8:00 37 5 52 170° S
Sa, 15.06. 2:00 35 5 46 180° S
Fr, 14.06. 20:00 26 4 52 210° SW
Fr, 14.06. 14:00 36 5 54 190° S
Fr, 14.06. 8:00 31 5 41 190° S
Fr, 14.06. 2:00 26 4 33 150° SO
Do, 13.06. 20:00 11 2 54 260° W
Ortszeit Stärke Spitze Richtung
km/h Bft. km/h Grad Sektor
Sa, 15.06. 16:00 30 5 61 240° SW
Sa, 15.06. 15:50 30 5 - 240° SW
Sa, 15.06. 15:40 36 5 - 250° W
Sa, 15.06. 15:30 36 5 61 250° W
Sa, 15.06. 15:20 36 5 - 250° W
Sa, 15.06. 15:10 36 5 - 260° W
Sa, 15.06. 15:00 36 5 61 240° SW
Sa, 15.06. 14:30 30 5 56 240° SW
Sa, 15.06. 14:00 32 5 72 250° W
Sa, 15.06. 13:30 43 6 72 260° W
Sa, 15.06. 13:00 54 7 83 250° W
Ortszeit Untergrenze Bedeckung Gattung
total tief tief mittel hoch
Sa, 15.06. 14:00 90 m 8/8 8/8 - - -
Sa, 15.06. 8:00 2100 m 8/8 4/8 - - -
Sa, 15.06. 2:00 360 m 7/8 7/8 - - -
Fr, 14.06. 20:00 120 m 8/8 8/8 - - -
Fr, 14.06. 14:00 <30 m 7/8 0/8 - - -
Fr, 14.06. 8:00 3300 m 8/8 8/8 - - -
Fr, 14.06. 2:00 9000 m 3/8 0/8 - - -
Do, 13.06. 20:00 7800 m 6/8 0/8 - - -
Ortszeit Bedeckungsgrad in Achtel und Wolkenuntergrenze
Sa, 15.06. 16:00 4(510m) 8(4800m) 8(5400m)
Sa, 15.06. 15:50 4(510m) 8(4800m) 8(5400m)
Sa, 15.06. 15:40 8
Sa, 15.06. 15:30 5(300m) 7(570m) 8(4500m)
Sa, 15.06. 15:20 5(300m) 7(570m) 8(4500m)
Sa, 15.06. 15:10 8
Sa, 15.06. 15:00 5(390m) 7(1110m) 7(3900m)
Sa, 15.06. 14:30 5(210m) 7(420m) 7(630m)
Sa, 15.06. 14:00 4(90m) 7(210m) 8(540m)
Sa, 15.06. 13:30 5(150m) 8(510m) 8(4500m)
Sa, 15.06. 13:00 5(150m) 7(330m) 7(540m)
Ortszeit Stationsdruck (hPa) Tendenz (hPa in 3 Std.)
Sa, 15.06. 14:00 874 + 0,4
Sa, 15.06. 8:00 872 - 0,9
Sa, 15.06. 2:00 875 - 1,2
Fr, 14.06. 20:00 877 - 0,3
Fr, 14.06. 14:00 877 - 0,3
Fr, 14.06. 8:00 878 - 0,6
Fr, 14.06. 2:00 879 - 0,7
Do, 13.06. 20:00 880 + 0,3
Ortszeit Stationsdruck (hPa) Tendenz (hPa in 3 Std.)
Sa, 15.06. 16:00 874 + 1,1
Sa, 15.06. 15:50 874 keine Meldung
Sa, 15.06. 15:40 874 keine Meldung
Sa, 15.06. 15:30 874 + 1,0
Sa, 15.06. 15:20 874 keine Meldung
Sa, 15.06. 15:10 874 keine Meldung
Sa, 15.06. 15:00 874 + 1,3
Sa, 15.06. 14:30 874 + 0,7
Sa, 15.06. 14:00 874 + 0,4
Sa, 15.06. 13:30 874 + 0,4
Sa, 15.06. 13:00 873 - 0,5
Ortszeit Schneehöhe (cm)
Sa, 15.06. 14:00 0
Sa, 15.06. 8:00 0
Sa, 15.06. 2:00 0
Fr, 14.06. 20:00 0
Fr, 14.06. 14:00 0
Fr, 14.06. 8:00 0
Fr, 14.06. 2:00 0
Do, 13.06. 20:00 0
Ortszeit Schneehöhe (cm)
Sa, 15.06. 16:00 0
Sa, 15.06. 15:50 0
Sa, 15.06. 15:40 -
Sa, 15.06. 15:30 0
Sa, 15.06. 15:20 0
Sa, 15.06. 15:10 -
Sa, 15.06. 15:00 0
Sa, 15.06. 14:30 0
Sa, 15.06. 14:00 0
Sa, 15.06. 13:30 0
Sa, 15.06. 13:00 0
Link zu dieser Seite / Seite empfehlen

Das Wetter in ...